sensor_id;sensor_type;location;lat;lon;timestamp;temperature;humidity
23233;DHT22;11785;49.500;8.288;2024-01-30T00:04:46;0.70;99.90
23233;DHT22;11785;49.500;8.288;2024-01-30T00:07:11;0.70;99.90
23233;DHT22;11785;49.500;8.288;2024-01-30T00:09:37;0.70;99.90
23233;DHT22;11785;49.500;8.288;2024-01-30T00:12:04;0.70;99.90
23233;DHT22;11785;49.500;8.288;2024-01-30T00:14:29;0.70;99.90
23233;DHT22;11785;49.500;8.288;2024-01-30T00:16:55;0.60;99.90
23233;DHT22;11785;49.500;8.288;2024-01-30T00:19:20;0.60;99.90
23233;DHT22;11785;49.500;8.288;2024-01-30T00:21:46;0.60;99.90
23233;DHT22;11785;49.500;8.288;2024-01-30T00:24:11;0.60;99.90
23233;DHT22;11785;49.500;8.288;2024-01-30T00:26:37;0.60;99.90
23233;DHT22;11785;49.500;8.288;2024-01-30T00:29:02;0.60;99.90
23233;DHT22;11785;49.500;8.288;2024-01-30T00:31:28;0.50;99.90
23233;DHT22;11785;49.500;8.288;2024-01-30T00:33:53;0.50;99.90
23233;DHT22;11785;49.500;8.288;2024-01-30T00:36:18;0.50;99.90
23233;DHT22;11785;49.500;8.288;2024-01-30T00:38:44;0.50;99.90
23233;DHT22;11785;49.500;8.288;2024-01-30T00:41:09;0.50;99.90
23233;DHT22;11785;49.500;8.288;2024-01-30T00:43:35;0.50;99.90
23233;DHT22;11785;49.500;8.288;2024-01-30T00:46:01;0.40;99.90
23233;DHT22;11785;49.500;8.288;2024-01-30T00:48:26;0.40;99.90
23233;DHT22;11785;49.500;8.288;2024-01-30T00:50:52;0.40;99.90
23233;DHT22;11785;49.500;8.288;2024-01-30T00:53:17;0.50;99.90
23233;DHT22;11785;49.500;8.288;2024-01-30T00:55:43;0.50;99.90
23233;DHT22;11785;49.500;8.288;2024-01-30T00:58:08;0.40;99.90
23233;DHT22;11785;49.500;8.288;2024-01-30T01:00:34;0.30;99.90
23233;DHT22;11785;49.500;8.288;2024-01-30T01:02:59;0.30;99.90
23233;DHT22;11785;49.500;8.288;2024-01-30T01:05:25;0.30;99.90
23233;DHT22;11785;49.500;8.288;2024-01-30T01:07:51;0.30;99.90
23233;DHT22;11785;49.500;8.288;2024-01-30T01:10:16;0.30;99.90
23233;DHT22;11785;49.500;8.288;2024-01-30T01:12:42;0.40;99.90
23233;DHT22;11785;49.500;8.288;2024-01-30T01:15:08;0.30;99.90
23233;DHT22;11785;49.500;8.288;2024-01-30T01:17:37;0.30;99.90
23233;DHT22;11785;49.500;8.288;2024-01-30T01:20:03;0.30;99.90
23233;DHT22;11785;49.500;8.288;2024-01-30T01:22:28;0.20;99.90
23233;DHT22;11785;49.500;8.288;2024-01-30T01:24:54;0.20;99.90
23233;DHT22;11785;49.500;8.288;2024-01-30T01:27:19;0.30;99.90
23233;DHT22;11785;49.500;8.288;2024-01-30T01:29:45;0.30;99.90
23233;DHT22;11785;49.500;8.288;2024-01-30T01:32:10;0.30;99.90
23233;DHT22;11785;49.500;8.288;2024-01-30T01:34:36;0.30;99.90
23233;DHT22;11785;49.500;8.288;2024-01-30T01:37:02;0.30;99.90
23233;DHT22;11785;49.500;8.288;2024-01-30T01:39:27;0.30;99.90
23233;DHT22;11785;49.500;8.288;2024-01-30T01:41:52;0.30;99.90
23233;DHT22;11785;49.500;8.288;2024-01-30T01:44:18;0.30;99.90
23233;DHT22;11785;49.500;8.288;2024-01-30T01:46:44;0.30;99.90
23233;DHT22;11785;49.500;8.288;2024-01-30T01:49:09;0.30;99.90
23233;DHT22;11785;49.500;8.288;2024-01-30T01:51:35;0.30;99.90
23233;DHT22;11785;49.500;8.288;2024-01-30T01:54:01;0.30;99.90
23233;DHT22;11785;49.500;8.288;2024-01-30T01:56:28;0.30;99.90
23233;DHT22;11785;49.500;8.288;2024-01-30T01:58:54;0.20;99.90
23233;DHT22;11785;49.500;8.288;2024-01-30T02:01:20;0.10;99.90
23233;DHT22;11785;49.500;8.288;2024-01-30T02:03:46;0.10;99.90
23233;DHT22;11785;49.500;8.288;2024-01-30T02:06:12;0.00;99.90
23233;DHT22;11785;49.500;8.288;2024-01-30T02:08:37;0.00;99.90
23233;DHT22;11785;49.500;8.288;2024-01-30T02:11:03;0.10;99.90
23233;DHT22;11785;49.500;8.288;2024-01-30T02:13:29;0.00;99.90
23233;DHT22;11785;49.500;8.288;2024-01-30T02:15:54;0.00;99.90
23233;DHT22;11785;49.500;8.288;2024-01-30T02:18:20;-0.10;99.90
23233;DHT22;11785;49.500;8.288;2024-01-30T02:20:46;-0.10;99.90
23233;DHT22;11785;49.500;8.288;2024-01-30T02:23:12;-0.10;99.90
23233;DHT22;11785;49.500;8.288;2024-01-30T02:25:40;-0.10;99.90
23233;DHT22;11785;49.500;8.288;2024-01-30T02:28:15;-0.10;99.90
23233;DHT22;11785;49.500;8.288;2024-01-30T02:30:43;-0.10;99.90
23233;DHT22;11785;49.500;8.288;2024-01-30T02:33:09;-0.10;99.90
23233;DHT22;11785;49.500;8.288;2024-01-30T02:35:35;-0.10;99.90
23233;DHT22;11785;49.500;8.288;2024-01-30T02:38:01;-0.10;99.90
23233;DHT22;11785;49.500;8.288;2024-01-30T02:40:26;-0.10;99.90
23233;DHT22;11785;49.500;8.288;2024-01-30T02:42:52;-0.10;99.90
23233;DHT22;11785;49.500;8.288;2024-01-30T02:45:25;-0.10;99.90
23233;DHT22;11785;49.500;8.288;2024-01-30T02:47:50;-0.10;99.90
23233;DHT22;11785;49.500;8.288;2024-01-30T02:50:16;-0.10;99.90
23233;DHT22;11785;49.500;8.288;2024-01-30T02:52:41;-0.10;99.90
23233;DHT22;11785;49.500;8.288;2024-01-30T02:55:09;-0.10;99.90
23233;DHT22;11785;49.500;8.288;2024-01-30T02:57:34;-0.10;99.90
23233;DHT22;11785;49.500;8.288;2024-01-30T03:00:00;-0.10;99.90
23233;DHT22;11785;49.500;8.288;2024-01-30T03:02:26;-0.10;99.90
23233;DHT22;11785;49.500;8.288;2024-01-30T03:04:51;-0.10;99.90
23233;DHT22;11785;49.500;8.288;2024-01-30T03:07:17;-0.20;99.90
23233;DHT22;11785;49.500;8.288;2024-01-30T03:09:42;-0.10;99.90
23233;DHT22;11785;49.500;8.288;2024-01-30T03:12:09;-0.10;99.90
23233;DHT22;11785;49.500;8.288;2024-01-30T03:14:34;-0.20;99.90
23233;DHT22;11785;49.500;8.288;2024-01-30T03:17:00;-0.20;99.90
23233;DHT22;11785;49.500;8.288;2024-01-30T03:19:25;-0.20;99.90
23233;DHT22;11785;49.500;8.288;2024-01-30T03:21:51;-0.20;99.90
23233;DHT22;11785;49.500;8.288;2024-01-30T03:24:16;-0.20;99.90
23233;DHT22;11785;49.500;8.288;2024-01-30T03:26:42;-0.30;99.90
23233;DHT22;11785;49.500;8.288;2024-01-30T03:29:07;-0.20;99.90
23233;DHT22;11785;49.500;8.288;2024-01-30T03:31:33;-0.20;99.90
23233;DHT22;11785;49.500;8.288;2024-01-30T03:33:58;-0.20;99.90
23233;DHT22;11785;49.500;8.288;2024-01-30T03:36:24;-0.30;99.90
23233;DHT22;11785;49.500;8.288;2024-01-30T03:38:49;-0.20;99.90
23233;DHT22;11785;49.500;8.288;2024-01-30T03:41:15;-0.20;99.90
23233;DHT22;11785;49.500;8.288;2024-01-30T03:43:40;-0.20;99.90
23233;DHT22;11785;49.500;8.288;2024-01-30T03:46:06;-0.30;99.90
23233;DHT22;11785;49.500;8.288;2024-01-30T03:48:32;-0.30;99.90
23233;DHT22;11785;49.500;8.288;2024-01-30T03:50:57;-0.30;99.90
23233;DHT22;11785;49.500;8.288;2024-01-30T03:53:23;-0.30;99.90
23233;DHT22;11785;49.500;8.288;2024-01-30T03:55:48;-0.30;99.90
23233;DHT22;11785;49.500;8.288;2024-01-30T03:58:14;-0.30;99.90
23233;DHT22;11785;49.500;8.288;2024-01-30T04:00:39;-0.30;99.90
23233;DHT22;11785;49.500;8.288;2024-01-30T04:03:06;-0.30;99.90
23233;DHT22;11785;49.500;8.288;2024-01-30T04:05:32;-0.30;99.90
23233;DHT22;11785;49.500;8.288;2024-01-30T04:07:57;-0.30;99.90
23233;DHT22;11785;49.500;8.288;2024-01-30T04:10:23;-0.30;99.90
23233;DHT22;11785;49.500;8.288;2024-01-30T04:12:50;-0.30;99.90
23233;DHT22;11785;49.500;8.288;2024-01-30T04:15:15;-0.30;99.90
23233;DHT22;11785;49.500;8.288;2024-01-30T04:17:42;-0.30;99.90
23233;DHT22;11785;49.500;8.288;2024-01-30T04:20:07;-0.30;99.90
23233;DHT22;11785;49.500;8.288;2024-01-30T04:22:33;-0.30;99.90
23233;DHT22;11785;49.500;8.288;2024-01-30T04:24:58;-0.30;99.90
23233;DHT22;11785;49.500;8.288;2024-01-30T04:27:24;-0.30;99.90
23233;DHT22;11785;49.500;8.288;2024-01-30T04:29:49;-0.30;99.90
23233;DHT22;11785;49.500;8.288;2024-01-30T04:32:14;-0.40;99.90
23233;DHT22;11785;49.500;8.288;2024-01-30T04:34:40;-0.30;99.90
23233;DHT22;11785;49.500;8.288;2024-01-30T04:37:05;-0.30;99.90
23233;DHT22;11785;49.500;8.288;2024-01-30T04:39:32;-0.40;99.90
23233;DHT22;11785;49.500;8.288;2024-01-30T04:41:58;-0.40;99.90
23233;DHT22;11785;49.500;8.288;2024-01-30T04:44:24;-0.40;99.90
23233;DHT22;11785;49.500;8.288;2024-01-30T04:46:49;-0.40;99.90
23233;DHT22;11785;49.500;8.288;2024-01-30T04:49:15;-0.40;99.90
23233;DHT22;11785;49.500;8.288;2024-01-30T04:51:40;-0.40;99.90
23233;DHT22;11785;49.500;8.288;2024-01-30T04:54:06;-0.40;99.90
23233;DHT22;11785;49.500;8.288;2024-01-30T04:56:31;-0.40;99.90
23233;DHT22;11785;49.500;8.288;2024-01-30T04:58:57;-0.40;99.90
23233;DHT22;11785;49.500;8.288;2024-01-30T05:01:22;-0.40;99.90
23233;DHT22;11785;49.500;8.288;2024-01-30T05:03:48;-0.20;99.90
23233;DHT22;11785;49.500;8.288;2024-01-30T05:06:13;-0.30;99.90
23233;DHT22;11785;49.500;8.288;2024-01-30T05:08:48;-0.30;99.90
23233;DHT22;11785;49.500;8.288;2024-01-30T05:11:14;-0.40;99.90
23233;DHT22;11785;49.500;8.288;2024-01-30T05:13:39;-0.40;99.90
23233;DHT22;11785;49.500;8.288;2024-01-30T05:16:05;-0.40;99.90
23233;DHT22;11785;49.500;8.288;2024-01-30T05:18:30;-0.40;99.90
23233;DHT22;11785;49.500;8.288;2024-01-30T05:20:56;-0.40;99.90
23233;DHT22;11785;49.500;8.288;2024-01-30T05:23:21;-0.50;99.90
23233;DHT22;11785;49.500;8.288;2024-01-30T05:25:47;-0.50;99.90
23233;DHT22;11785;49.500;8.288;2024-01-30T05:28:12;-0.50;99.90
23233;DHT22;11785;49.500;8.288;2024-01-30T05:30:39;-0.50;99.90
23233;DHT22;11785;49.500;8.288;2024-01-30T05:33:04;-0.50;99.90
23233;DHT22;11785;49.500;8.288;2024-01-30T05:35:30;-0.50;99.90
23233;DHT22;11785;49.500;8.288;2024-01-30T05:37:55;-0.50;99.90
23233;DHT22;11785;49.500;8.288;2024-01-30T05:40:21;-0.50;99.90
23233;DHT22;11785;49.500;8.288;2024-01-30T05:42:47;-0.50;99.90
23233;DHT22;11785;49.500;8.288;2024-01-30T05:45:13;-0.50;99.90
23233;DHT22;11785;49.500;8.288;2024-01-30T05:47:38;-0.60;99.90
23233;DHT22;11785;49.500;8.288;2024-01-30T05:50:04;-0.60;99.90
23233;DHT22;11785;49.500;8.288;2024-01-30T05:52:29;-0.60;99.90
23233;DHT22;11785;49.500;8.288;2024-01-30T05:54:55;-0.60;99.90
23233;DHT22;11785;49.500;8.288;2024-01-30T05:57:20;-0.60;99.90
23233;DHT22;11785;49.500;8.288;2024-01-30T05:59:46;-0.60;99.90
23233;DHT22;11785;49.500;8.288;2024-01-30T06:02:13;-0.60;99.90
23233;DHT22;11785;49.500;8.288;2024-01-30T06:04:38;-0.60;99.90
23233;DHT22;11785;49.500;8.288;2024-01-30T06:07:04;-0.60;99.90
23233;DHT22;11785;49.500;8.288;2024-01-30T06:09:31;-0.60;99.90
23233;DHT22;11785;49.500;8.288;2024-01-30T06:11:57;-0.60;99.90
23233;DHT22;11785;49.500;8.288;2024-01-30T06:14:22;-0.60;99.90
23233;DHT22;11785;49.500;8.288;2024-01-30T06:16:47;-0.60;99.90
23233;DHT22;11785;49.500;8.288;2024-01-30T06:19:13;-0.70;99.90
23233;DHT22;11785;49.500;8.288;2024-01-30T06:21:38;-0.60;99.90
23233;DHT22;11785;49.500;8.288;2024-01-30T06:24:04;-0.60;99.90
23233;DHT22;11785;49.500;8.288;2024-01-30T06:26:30;-0.70;99.90
23233;DHT22;11785;49.500;8.288;2024-01-30T06:28:55;-0.70;99.90
23233;DHT22;11785;49.500;8.288;2024-01-30T06:31:21;-0.70;99.90
23233;DHT22;11785;49.500;8.288;2024-01-30T06:33:47;-0.70;99.90
23233;DHT22;11785;49.500;8.288;2024-01-30T06:36:12;-0.70;99.90
23233;DHT22;11785;49.500;8.288;2024-01-30T06:38:37;-0.70;99.90
23233;DHT22;11785;49.500;8.288;2024-01-30T06:41:03;-0.70;99.90
23233;DHT22;11785;49.500;8.288;2024-01-30T06:43:29;-0.70;99.90
23233;DHT22;11785;49.500;8.288;2024-01-30T06:45:54;-0.80;99.90
23233;DHT22;11785;49.500;8.288;2024-01-30T06:48:20;-0.90;99.90
23233;DHT22;11785;49.500;8.288;2024-01-30T06:50:45;-0.80;99.90
23233;DHT22;11785;49.500;8.288;2024-01-30T06:53:11;-0.90;99.90
23233;DHT22;11785;49.500;8.288;2024-01-30T06:55:36;-0.80;99.90
23233;DHT22;11785;49.500;8.288;2024-01-30T06:58:02;-0.80;99.90
23233;DHT22;11785;49.500;8.288;2024-01-30T07:00:27;-0.80;99.90
23233;DHT22;11785;49.500;8.288;2024-01-30T07:02:53;-0.80;99.90
23233;DHT22;11785;49.500;8.288;2024-01-30T07:05:19;-0.80;99.90
23233;DHT22;11785;49.500;8.288;2024-01-30T07:07:44;-0.80;99.90
23233;DHT22;11785;49.500;8.288;2024-01-30T07:10:10;-0.80;99.90
23233;DHT22;11785;49.500;8.288;2024-01-30T07:12:35;-0.80;99.90
23233;DHT22;11785;49.500;8.288;2024-01-30T07:15:00;-0.80;99.90
23233;DHT22;11785;49.500;8.288;2024-01-30T07:17:28;-0.80;99.90
23233;DHT22;11785;49.500;8.288;2024-01-30T07:19:53;-0.70;99.90
23233;DHT22;11785;49.500;8.288;2024-01-30T07:22:18;-0.70;99.90
23233;DHT22;11785;49.500;8.288;2024-01-30T07:24:45;-0.70;99.90
23233;DHT22;11785;49.500;8.288;2024-01-30T07:27:14;-0.60;99.90
23233;DHT22;11785;49.500;8.288;2024-01-30T07:29:39;-0.60;99.90
23233;DHT22;11785;49.500;8.288;2024-01-30T07:32:05;-0.50;99.90
23233;DHT22;11785;49.500;8.288;2024-01-30T07:34:31;-0.50;99.90
23233;DHT22;11785;49.500;8.288;2024-01-30T07:36:56;-0.50;99.90
23233;DHT22;11785;49.500;8.288;2024-01-30T07:39:22;-0.40;99.90
23233;DHT22;11785;49.500;8.288;2024-01-30T07:41:47;-0.40;99.90
23233;DHT22;11785;49.500;8.288;2024-01-30T07:44:12;-0.30;99.90
23233;DHT22;11785;49.500;8.288;2024-01-30T07:46:38;-0.20;99.90
23233;DHT22;11785;49.500;8.288;2024-01-30T07:49:03;-0.10;99.90
23233;DHT22;11785;49.500;8.288;2024-01-30T07:51:29;0.00;99.90
23233;DHT22;11785;49.500;8.288;2024-01-30T07:53:57;0.10;99.90
23233;DHT22;11785;49.500;8.288;2024-01-30T07:56:22;0.20;99.90
23233;DHT22;11785;49.500;8.288;2024-01-30T07:58:48;0.20;99.90
23233;DHT22;11785;49.500;8.288;2024-01-30T08:01:14;0.40;99.90
23233;DHT22;11785;49.500;8.288;2024-01-30T08:03:40;0.50;99.90
23233;DHT22;11785;49.500;8.288;2024-01-30T08:06:07;0.60;99.90
23233;DHT22;11785;49.500;8.288;2024-01-30T08:08:32;0.70;99.90
23233;DHT22;11785;49.500;8.288;2024-01-30T08:10:57;0.80;99.90
23233;DHT22;11785;49.500;8.288;2024-01-30T08:13:23;1.00;99.90
23233;DHT22;11785;49.500;8.288;2024-01-30T08:15:48;1.10;99.90
23233;DHT22;11785;49.500;8.288;2024-01-30T08:18:14;1.20;99.90
23233;DHT22;11785;49.500;8.288;2024-01-30T08:23:42;1.40;99.90
23233;DHT22;11785;49.500;8.288;2024-01-30T08:50:33;2.30;99.90
23233;DHT22;11785;49.500;8.288;2024-01-30T08:52:58;2.30;99.90
23233;DHT22;11785;49.500;8.288;2024-01-30T08:55:24;2.30;99.90
23233;DHT22;11785;49.500;8.288;2024-01-30T08:57:49;2.40;99.90
23233;DHT22;11785;49.500;8.288;2024-01-30T09:00:15;2.50;99.90
23233;DHT22;11785;49.500;8.288;2024-01-30T09:02:40;2.60;99.90
23233;DHT22;11785;49.500;8.288;2024-01-30T09:05:06;2.70;99.90
23233;DHT22;11785;49.500;8.288;2024-01-30T09:07:31;2.90;99.90
23233;DHT22;11785;49.500;8.288;2024-01-30T09:09:57;3.00;99.90
23233;DHT22;11785;49.500;8.288;2024-01-30T09:12:23;3.10;99.90
23233;DHT22;11785;49.500;8.288;2024-01-30T09:14:48;3.30;99.90
23233;DHT22;11785;49.500;8.288;2024-01-30T09:17:13;3.40;99.90
23233;DHT22;11785;49.500;8.288;2024-01-30T09:19:40;3.50;99.90
23233;DHT22;11785;49.500;8.288;2024-01-30T09:22:05;3.60;99.90
23233;DHT22;11785;49.500;8.288;2024-01-30T09:24:31;3.80;99.90
23233;DHT22;11785;49.500;8.288;2024-01-30T09:26:57;3.90;99.90
23233;DHT22;11785;49.500;8.288;2024-01-30T09:29:22;4.10;99.90
23233;DHT22;11785;49.500;8.288;2024-01-30T09:31:48;4.20;99.90
23233;DHT22;11785;49.500;8.288;2024-01-30T09:34:13;4.40;99.90
23233;DHT22;11785;49.500;8.288;2024-01-30T09:36:39;4.50;99.90
23233;DHT22;11785;49.500;8.288;2024-01-30T09:39:04;4.60;99.90
23233;DHT22;11785;49.500;8.288;2024-01-30T09:41:32;4.80;99.90
23233;DHT22;11785;49.500;8.288;2024-01-30T09:43:58;5.10;99.90
23233;DHT22;11785;49.500;8.288;2024-01-30T09:46:25;5.30;99.90
23233;DHT22;11785;49.500;8.288;2024-01-30T09:48:52;5.30;99.90
23233;DHT22;11785;49.500;8.288;2024-01-30T09:51:19;5.40;99.90
23233;DHT22;11785;49.500;8.288;2024-01-30T09:53:46;5.30;99.90
23233;DHT22;11785;49.500;8.288;2024-01-30T09:56:12;5.30;99.90
23233;DHT22;11785;49.500;8.288;2024-01-30T09:58:38;5.40;99.90
23233;DHT22;11785;49.500;8.288;2024-01-30T10:01:05;5.30;99.90
23233;DHT22;11785;49.500;8.288;2024-01-30T10:03:30;5.50;99.90
23233;DHT22;11785;49.500;8.288;2024-01-30T10:05:56;5.60;99.90
23233;DHT22;11785;49.500;8.288;2024-01-30T10:08:22;5.60;99.90
23233;DHT22;11785;49.500;8.288;2024-01-30T10:10:47;5.70;99.90
23233;DHT22;11785;49.500;8.288;2024-01-30T10:13:13;5.90;99.90
23233;DHT22;11785;49.500;8.288;2024-01-30T10:15:39;5.90;99.90
23233;DHT22;11785;49.500;8.288;2024-01-30T10:18:05;6.10;99.90
23233;DHT22;11785;49.500;8.288;2024-01-30T10:20:32;6.20;99.90
23233;DHT22;11785;49.500;8.288;2024-01-30T10:22:57;6.20;99.90
23233;DHT22;11785;49.500;8.288;2024-01-30T10:25:23;6.30;99.90
23233;DHT22;11785;49.500;8.288;2024-01-30T10:27:54;6.30;99.90
23233;DHT22;11785;49.500;8.288;2024-01-30T10:30:21;6.60;99.90
23233;DHT22;11785;49.500;8.288;2024-01-30T10:32:46;6.80;99.90
23233;DHT22;11785;49.500;8.288;2024-01-30T10:35:12;6.80;99.90
23233;DHT22;11785;49.500;8.288;2024-01-30T10:37:37;7.00;99.90
23233;DHT22;11785;49.500;8.288;2024-01-30T10:40:03;7.00;99.90
23233;DHT22;11785;49.500;8.288;2024-01-30T10:42:31;6.90;99.90
23233;DHT22;11785;49.500;8.288;2024-01-30T10:45:05;6.90;99.90
23233;DHT22;11785;49.500;8.288;2024-01-30T10:47:32;6.90;99.90
23233;DHT22;11785;49.500;8.288;2024-01-30T10:49:59;7.20;99.90
23233;DHT22;11785;49.500;8.288;2024-01-30T10:52:25;7.30;99.90
23233;DHT22;11785;49.500;8.288;2024-01-30T10:54:51;7.40;99.90
23233;DHT22;11785;49.500;8.288;2024-01-30T10:57:17;7.40;99.90
23233;DHT22;11785;49.500;8.288;2024-01-30T10:59:43;7.30;99.90
23233;DHT22;11785;49.500;8.288;2024-01-30T11:02:09;7.30;99.90
23233;DHT22;11785;49.500;8.288;2024-01-30T11:04:36;7.40;99.90
23233;DHT22;11785;49.500;8.288;2024-01-30T11:07:01;7.50;99.90
23233;DHT22;11785;49.500;8.288;2024-01-30T11:09:29;7.70;99.90
23233;DHT22;11785;49.500;8.288;2024-01-30T11:11:58;8.00;99.90
23233;DHT22;11785;49.500;8.288;2024-01-30T11:14:27;8.20;99.90
23233;DHT22;11785;49.500;8.288;2024-01-30T11:16:52;8.10;99.90
23233;DHT22;11785;49.500;8.288;2024-01-30T11:19:24;8.10;99.90
23233;DHT22;11785;49.500;8.288;2024-01-30T11:21:53;8.20;99.90
23233;DHT22;11785;49.500;8.288;2024-01-30T11:24:20;8.30;99.90
23233;DHT22;11785;49.500;8.288;2024-01-30T11:26:47;8.40;99.90
23233;DHT22;11785;49.500;8.288;2024-01-30T11:29:13;8.40;99.90
23233;DHT22;11785;49.500;8.288;2024-01-30T11:31:38;8.30;99.90
23233;DHT22;11785;49.500;8.288;2024-01-30T11:34:04;8.30;99.90
23233;DHT22;11785;49.500;8.288;2024-01-30T11:36:30;8.40;99.90
23233;DHT22;11785;49.500;8.288;2024-01-30T11:38:57;8.50;99.90
23233;DHT22;11785;49.500;8.288;2024-01-30T11:41:23;8.40;99.90
23233;DHT22;11785;49.500;8.288;2024-01-30T11:43:52;8.60;99.90
23233;DHT22;11785;49.500;8.288;2024-01-30T11:46:18;8.70;99.90
23233;DHT22;11785;49.500;8.288;2024-01-30T11:48:43;8.80;99.90
23233;DHT22;11785;49.500;8.288;2024-01-30T11:51:09;9.00;99.90
23233;DHT22;11785;49.500;8.288;2024-01-30T11:53:34;8.90;99.90
23233;DHT22;11785;49.500;8.288;2024-01-30T11:56:00;9.10;99.90
23233;DHT22;11785;49.500;8.288;2024-01-30T11:58:25;9.30;99.90
23233;DHT22;11785;49.500;8.288;2024-01-30T12:00:57;9.50;99.90
23233;DHT22;11785;49.500;8.288;2024-01-30T12:03:23;9.60;99.60
23233;DHT22;11785;49.500;8.288;2024-01-30T12:05:54;9.50;99.60
23233;DHT22;11785;49.500;8.288;2024-01-30T12:08:20;9.70;98.60
23233;DHT22;11785;49.500;8.288;2024-01-30T12:10:45;9.80;98.40
23233;DHT22;11785;49.500;8.288;2024-01-30T12:13:11;9.80;98.40
23233;DHT22;11785;49.500;8.288;2024-01-30T12:15:36;9.90;97.90
23233;DHT22;11785;49.500;8.288;2024-01-30T12:18:05;10.00;96.90
23233;DHT22;11785;49.500;8.288;2024-01-30T12:20:31;10.10;96.30
23233;DHT22;11785;49.500;8.288;2024-01-30T12:22:57;10.10;96.20
23233;DHT22;11785;49.500;8.288;2024-01-30T12:25:22;10.30;95.40
23233;DHT22;11785;49.500;8.288;2024-01-30T12:27:49;10.50;94.60
23233;DHT22;11785;49.500;8.288;2024-01-30T12:30:18;10.90;93.00
23233;DHT22;11785;49.500;8.288;2024-01-30T12:32:45;11.10;91.60
23233;DHT22;11785;49.500;8.288;2024-01-30T12:37:37;11.00;91.40
23233;DHT22;11785;49.500;8.288;2024-01-30T12:40:02;11.00;91.30
23233;DHT22;11785;49.500;8.288;2024-01-30T12:42:28;10.90;91.80
23233;DHT22;11785;49.500;8.288;2024-01-30T12:44:53;11.10;91.10
23233;DHT22;11785;49.500;8.288;2024-01-30T12:47:21;11.20;90.00
23233;DHT22;11785;49.500;8.288;2024-01-30T12:49:47;11.20;90.20
23233;DHT22;11785;49.500;8.288;2024-01-30T12:52:13;11.40;88.50
23233;DHT22;11785;49.500;8.288;2024-01-30T12:54:38;11.80;85.90
23233;DHT22;11785;49.500;8.288;2024-01-30T12:57:04;12.30;80.20
23233;DHT22;11785;49.500;8.288;2024-01-30T12:59:30;12.80;74.30
23233;DHT22;11785;49.500;8.288;2024-01-30T13:01:55;13.20;69.20
23233;DHT22;11785;49.500;8.288;2024-01-30T13:04:21;13.50;65.00
23233;DHT22;11785;49.500;8.288;2024-01-30T13:06:47;13.80;61.80
23233;DHT22;11785;49.500;8.288;2024-01-30T13:09:13;14.10;59.90
23233;DHT22;11785;49.500;8.288;2024-01-30T13:11:38;13.80;59.90
23233;DHT22;11785;49.500;8.288;2024-01-30T13:14:03;13.80;59.90
23233;DHT22;11785;49.500;8.288;2024-01-30T13:16:29;13.40;60.60
23233;DHT22;11785;49.500;8.288;2024-01-30T13:18:54;13.10;63.10
23233;DHT22;11785;49.500;8.288;2024-01-30T13:21:20;12.70;67.60
23233;DHT22;11785;49.500;8.288;2024-01-30T13:23:46;12.80;66.20
23233;DHT22;11785;49.500;8.288;2024-01-30T13:26:11;12.70;67.90
23233;DHT22;11785;49.500;8.288;2024-01-30T13:28:37;12.60;68.60
23233;DHT22;11785;49.500;8.288;2024-01-30T13:31:02;12.50;69.60
23233;DHT22;11785;49.500;8.288;2024-01-30T13:33:28;12.20;72.70
23233;DHT22;11785;49.500;8.288;2024-01-30T13:35:53;12.00;73.90
23233;DHT22;11785;49.500;8.288;2024-01-30T13:38:19;11.90;75.70
23233;DHT22;11785;49.500;8.288;2024-01-30T13:40:44;12.00;75.60
23233;DHT22;11785;49.500;8.288;2024-01-30T13:43:10;11.90;75.20
23233;DHT22;11785;49.500;8.288;2024-01-30T13:45:35;11.70;77.10
23233;DHT22;11785;49.500;8.288;2024-01-30T13:48:01;11.60;78.30
23233;DHT22;11785;49.500;8.288;2024-01-30T13:50:28;11.40;80.30
23233;DHT22;11785;49.500;8.288;2024-01-30T13:52:54;11.30;81.50
23233;DHT22;11785;49.500;8.288;2024-01-30T13:55:19;11.20;82.90
23233;DHT22;11785;49.500;8.288;2024-01-30T13:57:45;11.20;83.40
23233;DHT22;11785;49.500;8.288;2024-01-30T14:00:10;11.20;83.80
23233;DHT22;11785;49.500;8.288;2024-01-30T14:02:36;11.30;83.00
23233;DHT22;11785;49.500;8.288;2024-01-30T14:05:01;11.40;82.60
23233;DHT22;11785;49.500;8.288;2024-01-30T14:07:29;11.60;80.90
23233;DHT22;11785;49.500;8.288;2024-01-30T14:09:55;11.70;79.70
23233;DHT22;11785;49.500;8.288;2024-01-30T14:12:21;11.70;78.70
23233;DHT22;11785;49.500;8.288;2024-01-30T14:14:46;11.50;80.50
23233;DHT22;11785;49.500;8.288;2024-01-30T14:17:11;11.50;80.50
23233;DHT22;11785;49.500;8.288;2024-01-30T14:19:37;11.40;81.10
23233;DHT22;11785;49.500;8.288;2024-01-30T14:22:02;11.30;81.80
23233;DHT22;11785;49.500;8.288;2024-01-30T14:24:28;11.30;82.10
23233;DHT22;11785;49.500;8.288;2024-01-30T14:26:53;11.30;82.30
23233;DHT22;11785;49.500;8.288;2024-01-30T14:29:19;11.30;82.70
23233;DHT22;11785;49.500;8.288;2024-01-30T14:31:44;11.30;82.80
23233;DHT22;11785;49.500;8.288;2024-01-30T14:34:10;11.30;83.30
23233;DHT22;11785;49.500;8.288;2024-01-30T14:36:39;11.30;83.40
23233;DHT22;11785;49.500;8.288;2024-01-30T14:39:04;11.30;83.60
23233;DHT22;11785;49.500;8.288;2024-01-30T14:41:32;11.30;83.90
23233;DHT22;11785;49.500;8.288;2024-01-30T14:43:57;11.20;84.50
23233;DHT22;11785;49.500;8.288;2024-01-30T14:46:23;11.20;84.90
23233;DHT22;11785;49.500;8.288;2024-01-30T14:48:48;11.10;85.90
23233;DHT22;11785;49.500;8.288;2024-01-30T14:51:16;11.10;86.20
23233;DHT22;11785;49.500;8.288;2024-01-30T14:53:42;11.00;87.00
23233;DHT22;11785;49.500;8.288;2024-01-30T14:56:08;11.00;87.30
23233;DHT22;11785;49.500;8.288;2024-01-30T14:58:33;11.00;87.50
23233;DHT22;11785;49.500;8.288;2024-01-30T15:00:59;10.90;88.50
23233;DHT22;11785;49.500;8.288;2024-01-30T15:03:26;10.90;88.90
23233;DHT22;11785;49.500;8.288;2024-01-30T15:05:52;10.80;90.00
23233;DHT22;11785;49.500;8.288;2024-01-30T15:08:20;10.80;90.10
23233;DHT22;11785;49.500;8.288;2024-01-30T15:10:45;10.70;90.50
23233;DHT22;11785;49.500;8.288;2024-01-30T15:13:11;10.60;91.00
23233;DHT22;11785;49.500;8.288;2024-01-30T15:15:37;10.60;91.20
23233;DHT22;11785;49.500;8.288;2024-01-30T15:18:03;10.50;91.60
23233;DHT22;11785;49.500;8.288;2024-01-30T15:20:28;10.50;91.80
23233;DHT22;11785;49.500;8.288;2024-01-30T15:22:53;10.50;91.80
23233;DHT22;11785;49.500;8.288;2024-01-30T15:25:19;10.40;92.20
23233;DHT22;11785;49.500;8.288;2024-01-30T15:27:44;10.40;92.40
23233;DHT22;11785;49.500;8.288;2024-01-30T15:30:10;10.40;92.40
23233;DHT22;11785;49.500;8.288;2024-01-30T15:32:36;10.40;92.50
23233;DHT22;11785;49.500;8.288;2024-01-30T15:35:02;10.40;92.60
23233;DHT22;11785;49.500;8.288;2024-01-30T15:37:29;10.40;92.70
23233;DHT22;11785;49.500;8.288;2024-01-30T15:39:54;10.30;93.10
23233;DHT22;11785;49.500;8.288;2024-01-30T15:42:20;10.30;93.20
23233;DHT22;11785;49.500;8.288;2024-01-30T15:44:45;10.20;93.90
23233;DHT22;11785;49.500;8.288;2024-01-30T15:47:11;10.20;93.80
23233;DHT22;11785;49.500;8.288;2024-01-30T15:49:36;10.10;94.30
23233;DHT22;11785;49.500;8.288;2024-01-30T15:52:02;10.10;94.50
23233;DHT22;11785;49.500;8.288;2024-01-30T15:54:27;10.00;94.90
23233;DHT22;11785;49.500;8.288;2024-01-30T15:56:53;10.00;95.40
23233;DHT22;11785;49.500;8.288;2024-01-30T15:59:18;10.00;95.30
23233;DHT22;11785;49.500;8.288;2024-01-30T16:01:44;9.90;95.70